Time;durP1;ratioP1;P1;durP2;ratioP2;P2;SDS_P1;SDS_P2;PMS_P1;PMS_P2;Temp;Humidity;BMP_temperature;BMP_pressure;BME280_temperature;BME280_humidity;BME280_pressure;Samples;Min_cycle;Max_cycle;Signal;HPM_P1;HPM_P2
2021/08/23 00:02:00;;;;;;;19.17;13.83;;;16.90;99.90;;;;;;5055262;28;20225;-62
2021/08/23 00:04:27;;;;;;;17.07;14.50;;;16.90;99.90;;;;;;5054766;28;20236;-60
2021/08/23 00:06:54;;;;;;;21.07;15.10;;;16.90;99.90;;;;;;5055189;28;20205;-63
2021/08/23 00:09:20;;;;;;;18.90;14.83;;;16.90;99.90;;;;;;5054943;28;20252;-61
2021/08/23 00:11:48;;;;;;;19.67;15.37;;;16.90;99.90;;;;;;5054905;28;20222;-61
2021/08/23 00:14:15;;;;;;;23.70;15.23;;;16.90;99.90;;;;;;5054702;28;20259;-63
2021/08/23 00:16:41;;;;;;;20.13;14.80;;;16.90;99.90;;;;;;5054778;28;20275;-63
2021/08/23 00:19:08;;;;;;;21.10;14.93;;;16.90;99.90;;;;;;5054608;28;20706;-63
2021/08/23 00:21:42;;;;;;;22.90;16.03;;;16.90;99.90;;;;;;5054954;28;20221;-60
2021/08/23 00:24:21;;;;;;;20.33;16.37;;;16.90;99.90;;;;;;5054649;28;20209;-60
2021/08/23 00:26:50;;;;;;;31.33;17.50;;;16.80;99.90;;;;;;5054701;28;20209;-60
2021/08/23 00:29:16;;;;;;;24.97;17.70;;;16.80;99.90;;;;;;5054451;28;20313;-60
2021/08/23 00:31:43;;;;;;;24.33;17.40;;;16.80;99.90;;;;;;5054571;28;20230;-60
2021/08/23 00:34:09;;;;;;;22.17;17.13;;;16.70;99.90;;;;;;5054314;28;20255;-60
2021/08/23 00:36:36;;;;;;;26.10;16.50;;;16.70;99.90;;;;;;5054602;28;20224;-60
2021/08/23 00:39:04;;;;;;;24.57;17.07;;;16.80;99.90;;;;;;5054378;28;20271;-60
2021/08/23 00:41:32;;;;;;;21.30;16.47;;;16.80;99.90;;;;;;5054296;28;20230;-60
2021/08/23 00:44:00;;;;;;;24.87;16.80;;;16.80;99.90;;;;;;5054107;28;20251;-58
2021/08/23 00:46:27;;;;;;;26.00;16.63;;;16.90;99.90;;;;;;5054158;28;20209;-60
2021/08/23 00:48:53;;;;;;;29.60;17.83;;;16.90;99.90;;;;;;5054328;28;20263;-60
2021/08/23 00:51:21;;;;;;;22.83;17.13;;;16.90;99.90;;;;;;5054038;28;20229;-60
2021/08/23 00:53:48;;;;;;;21.50;16.37;;;16.90;99.90;;;;;;5054082;28;20260;-61
2021/08/23 00:56:17;;;;;;;20.03;16.20;;;16.90;99.90;;;;;;5054129;28;20259;-60
2021/08/23 00:58:44;;;;;;;22.10;16.83;;;16.90;99.90;;;;;;5053727;28;20295;-60
2021/08/23 01:01:16;;;;;;;23.43;16.00;;;16.90;99.90;;;;;;5053743;28;20259;-60
2021/08/23 01:03:50;;;;;;;23.30;16.43;;;17.00;99.90;;;;;;5053915;28;20202;-59
2021/08/23 01:06:17;;;;;;;21.50;16.77;;;17.00;99.90;;;;;;5053826;28;20204;-60
2021/08/23 01:08:47;;;;;;;22.73;16.67;;;17.00;99.90;;;;;;5053876;28;20202;-60
2021/08/23 01:11:16;;;;;;;22.17;16.00;;;17.00;99.90;;;;;;5053417;28;20229;-60
2021/08/23 01:13:45;;;;;;;22.10;15.70;;;17.00;99.90;;;;;;5053952;28;20206;-60
2021/08/23 01:16:13;;;;;;;19.03;15.83;;;17.00;99.90;;;;;;5053964;28;20556;-59
2021/08/23 01:18:41;;;;;;;22.73;15.77;;;17.00;99.90;;;;;;5053677;28;20263;-60
2021/08/23 01:21:09;;;;;;;21.23;15.07;;;17.00;99.90;;;;;;5053475;28;20259;-60
2021/08/23 01:23:38;;;;;;;19.70;14.93;;;16.90;99.20;;;;;;5053370;28;20622;-60
2021/08/23 01:26:05;;;;;;;18.63;14.20;;;17.00;83.50;;;;;;5053725;28;20209;-60
2021/08/23 01:28:46;;;;;;;19.43;14.57;;;16.90;59.50;;;;;;5053469;28;20205;-60
2021/08/23 01:31:24;;;;;;;20.17;14.20;;;16.80;43.20;;;;;;5053342;28;20233;-60
2021/08/23 01:33:52;;;;;;;19.07;14.53;;;16.80;33.00;;;;;;5053179;28;20228;-60
2021/08/23 01:36:19;;;;;;;24.33;16.73;;;16.80;27.30;;;;;;5053211;28;20209;-60
2021/08/23 01:38:46;;;;;;;27.67;17.37;;;16.80;11.20;;;;;;5053238;28;20579;-60
2021/08/23 01:41:13;;;;;;;26.13;17.40;;;16.70;15.20;;;;;;5053223;28;20295;-60
2021/08/23 01:43:40;;;;;;;33.50;18.87;;;16.70;19.10;;;;;;5053074;28;20818;-60
2021/08/23 01:46:06;;;;;;;22.47;17.13;;;16.60;28.40;;;;;;5053068;28;20626;-60
2021/08/23 01:48:33;;;;;;;28.20;16.93;;;16.60;28.10;;;;;;5052984;28;20205;-60
2021/08/23 01:51:02;;;;;;;25.97;17.03;;;16.60;26.10;;;;;;5053049;28;20201;-60
2021/08/23 01:53:28;;;;;;;28.97;15.83;;;16.60;29.80;;;;;;5052982;28;20263;-60
2021/08/23 01:55:55;;;;;;;31.17;17.07;;;16.60;29.90;;;;;;5052907;28;20209;-60
2021/08/23 01:58:22;;;;;;;24.00;16.60;;;16.60;27.80;;;;;;5052806;28;20272;-60
2021/08/23 02:00:48;;;;;;;27.03;17.37;;;16.50;24.60;;;;;;5053059;28;20619;-60
2021/08/23 02:03:15;;;;;;;24.13;16.73;;;16.50;20.30;;;;;;5052486;28;20222;-60
2021/08/23 02:05:42;;;;;;;34.20;19.30;;;16.50;19.10;;;;;;5052687;28;20209;-60
2021/08/23 02:08:10;;;;;;;40.00;20.60;;;16.40;17.10;;;;;;5052886;28;20210;-60
2021/08/23 02:10:36;;;;;;;35.03;21.00;;;16.30;29.60;;;;;;5052253;28;20205;-60
2021/08/23 02:13:03;;;;;;;38.17;20.43;;;16.30;39.00;;;;;;5052898;28;20251;-60
2021/08/23 02:15:30;;;;;;;32.27;19.50;;;16.30;55.10;;;;;;5052453;28;20209;-60
2021/08/23 02:17:57;;;;;;;32.93;19.93;;;16.30;66.50;;;;;;5052326;28;20220;-60
2021/08/23 02:20:24;;;;;;;35.07;20.53;;;16.30;75.70;;;;;;5052426;28;20202;-60
2021/08/23 02:22:51;;;;;;;30.17;19.60;;;16.40;93.10;;;;;;5052586;28;20674;-60
2021/08/23 02:25:22;;;;;;;32.00;19.93;;;16.40;97.20;;;;;;5052386;28;20247;-60
2021/08/23 02:27:48;;;;;;;34.97;19.03;;;16.50;99.90;;;;;;5052298;28;20233;-59
2021/08/23 02:30:15;;;;;;;31.37;19.70;;;16.50;99.90;;;;;;5052085;28;20271;-60
2021/08/23 02:32:42;;;;;;;31.40;19.80;;;16.50;99.90;;;;;;5052313;28;20225;-60
2021/08/23 02:35:09;;;;;;;28.30;18.93;;;16.60;99.90;;;;;;5052065;28;20252;-60
2021/08/23 02:37:36;;;;;;;28.47;18.87;;;16.60;99.90;;;;;;5052290;28;20201;-60
2021/08/23 02:40:03;;;;;;;33.20;18.97;;;16.50;99.90;;;;;;5052424;28;20230;-60
2021/08/23 02:42:31;;;;;;;28.60;18.53;;;16.60;99.90;;;;;;5051879;28;20233;-60
2021/08/23 02:44:57;;;;;;;28.60;19.43;;;16.60;99.90;;;;;;5051861;28;20264;-60
2021/08/23 02:47:24;;;;;;;29.43;19.77;;;16.60;99.90;;;;;;5052054;28;20206;-60
2021/08/23 02:49:51;;;;;;;33.93;19.57;;;16.70;99.90;;;;;;5052019;28;20670;-60
2021/08/23 02:52:17;;;;;;;30.50;19.13;;;16.70;99.90;;;;;;5052089;28;20229;-60
2021/08/23 02:54:44;;;;;;;30.13;19.40;;;16.70;99.90;;;;;;5052085;28;20209;-60
2021/08/23 02:57:10;;;;;;;34.90;20.83;;;16.70;99.90;;;;;;5051824;28;20210;-60
2021/08/23 02:59:38;;;;;;;31.60;19.20;;;16.70;99.90;;;;;;5051722;28;20280;-60
2021/08/23 03:02:05;;;;;;;36.30;21.43;;;16.70;99.90;;;;;;5051750;28;20226;-59
2021/08/23 03:04:32;;;;;;;44.07;24.27;;;16.70;99.90;;;;;;5051784;28;20263;-60
2021/08/23 03:06:58;;;;;;;43.00;23.80;;;16.60;99.90;;;;;;5051731;28;20681;-59
2021/08/23 03:09:25;;;;;;;46.77;24.93;;;16.50;99.90;;;;;;5051851;28;20202;-60
2021/08/23 03:11:51;;;;;;;41.30;23.20;;;16.50;99.90;;;;;;5051562;28;20740;-60
2021/08/23 03:14:18;;;;;;;40.00;22.73;;;16.60;99.90;;;;;;5051525;28;20210;-59
2021/08/23 03:16:46;;;;;;;35.57;22.53;;;16.60;99.90;;;;;;5051848;28;20201;-59
2021/08/23 03:19:13;;;;;;;31.07;21.50;;;16.70;99.90;;;;;;5051577;28;20621;-60
2021/08/23 03:21:39;;;;;;;31.83;21.50;;;16.70;99.90;;;;;;5051731;28;20222;-60
2021/08/23 03:24:06;;;;;;;29.77;21.03;;;16.80;99.90;;;;;;5053937;28;20257;-60
2021/08/23 03:26:32;;;;;;;35.80;22.83;;;16.80;99.90;;;;;;5055510;28;20209;-60
2021/08/23 03:28:59;;;;;;;38.90;24.10;;;16.70;99.90;;;;;;5055967;28;20618;-59
2021/08/23 03:31:26;;;;;;;36.43;23.20;;;16.60;99.90;;;;;;5055525;28;20233;-60
2021/08/23 03:33:54;;;;;;;39.17;22.70;;;16.70;99.90;;;;;;5055571;28;20259;-60
2021/08/23 03:36:20;;;;;;;39.27;23.47;;;16.70;99.90;;;;;;5055603;28;20254;-60
2021/08/23 03:38:48;;;;;;;37.60;23.30;;;16.70;99.90;;;;;;5055508;28;20279;-60
2021/08/23 03:41:15;;;;;;;35.50;21.17;;;16.70;99.90;;;;;;5055169;28;20225;-60
2021/08/23 03:43:41;;;;;;;32.27;21.10;;;16.80;99.90;;;;;;5055496;28;20201;-60
2021/08/23 03:46:08;;;;;;;30.93;20.30;;;16.80;99.90;;;;;;5055451;28;20256;-60
2021/08/23 03:48:34;;;;;;;38.63;21.83;;;16.70;99.90;;;;;;5055457;28;20202;-60
2021/08/23 03:51:02;;;;;;;37.07;22.77;;;16.70;99.90;;;;;;5055160;28;20673;-61
2021/08/23 03:53:29;;;;;;;32.37;21.33;;;16.70;99.90;;;;;;5055028;28;20209;-61
2021/08/23 03:55:56;;;;;;;28.83;20.27;;;16.70;99.90;;;;;;5055223;28;20213;-61
2021/08/23 03:58:22;;;;;;;32.93;21.17;;;16.80;99.90;;;;;;5055219;28;20259;-61
2021/08/23 04:00:49;;;;;;;33.47;21.83;;;16.80;99.90;;;;;;5055234;28;20206;-61
2021/08/23 04:03:15;;;;;;;41.10;23.03;;;16.70;99.90;;;;;;5054953;28;20230;-61
2021/08/23 04:05:43;;;;;;;36.10;22.93;;;16.60;99.90;;;;;;5054850;28;20263;-61
2021/08/23 04:08:11;;;;;;;42.87;25.53;;;16.60;99.90;;;;;;5054939;28;20690;-61
2021/08/23 04:10:38;;;;;;;60.63;29.90;;;16.60;99.90;;;;;;5055110;28;20271;-61
2021/08/23 04:13:05;;;;;;;56.50;29.07;;;16.50;99.90;;;;;;5055001;28;20236;-61
2021/08/23 04:15:31;;;;;;;64.07;31.47;;;16.50;99.90;;;;;;5054801;28;20213;-61
2021/08/23 04:17:59;;;;;;;61.37;31.37;;;16.50;99.90;;;;;;5054825;28;20213;-60
2021/08/23 04:20:26;;;;;;;80.63;36.80;;;16.50;99.90;;;;;;5054650;28;20853;-60
2021/08/23 04:22:52;;;;;;;70.63;35.20;;;16.40;99.90;;;;;;5054669;28;20275;-60
2021/08/23 04:25:21;;;;;;;80.20;37.77;;;16.40;99.90;;;;;;5054717;28;20209;-60
2021/08/23 04:27:47;;;;;;;84.00;37.27;;;16.40;99.90;;;;;;5054437;28;20625;-60
2021/08/23 04:30:14;;;;;;;83.50;37.60;;;16.40;99.90;;;;;;5054501;28;20279;-60
2021/08/23 04:32:41;;;;;;;90.83;38.40;;;16.40;99.90;;;;;;5054381;28;20259;-60
2021/08/23 04:35:08;;;;;;;88.83;39.60;;;16.40;99.90;;;;;;5053780;28;20248;-60
2021/08/23 04:37:35;;;;;;;96.83;41.20;;;16.40;99.90;;;;;;5054257;28;20614;-61
2021/08/23 04:40:01;;;;;;;104.77;42.50;;;16.40;99.90;;;;;;5054324;28;20279;-61
2021/08/23 04:42:29;;;;;;;105.17;42.27;;;16.40;99.90;;;;;;5054448;28;20225;-61
2021/08/23 04:44:56;;;;;;;100.63;39.93;;;16.30;99.90;;;;;;5053909;28;20666;-61
2021/08/23 04:47:22;;;;;;;121.00;46.97;;;16.40;99.90;;;;;;5054230;28;20205;-58
2021/08/23 04:49:49;;;;;;;120.40;45.83;;;16.30;99.90;;;;;;5053888;28;20232;-60
2021/08/23 04:52:15;;;;;;;124.40;46.87;;;16.30;99.90;;;;;;5054437;28;20361;-60
2021/08/23 04:54:42;;;;;;;125.23;49.47;;;16.20;99.90;;;;;;5054023;28;20209;-60
2021/08/23 04:57:10;;;;;;;126.00;47.63;;;16.20;99.90;;;;;;5054146;28;20210;-60
2021/08/23 04:59:38;;;;;;;109.73;45.10;;;16.20;99.90;;;;;;5054106;28;20275;-61
2021/08/23 05:02:04;;;;;;;101.00;41.73;;;16.20;99.90;;;;;;5053900;28;20229;-61
2021/08/23 05:04:31;;;;;;;107.30;44.53;;;16.20;99.90;;;;;;5053644;28;20256;-61
2021/08/23 05:06:57;;;;;;;109.00;45.20;;;16.10;99.90;;;;;;5053861;28;20272;-61
2021/08/23 05:09:24;;;;;;;102.17;43.40;;;16.10;99.90;;;;;;5054016;28;20622;-61
2021/08/23 05:11:51;;;;;;;102.40;42.80;;;16.10;99.90;;;;;;5053886;28;20283;-61
2021/08/23 05:14:17;;;;;;;94.33;42.27;;;16.10;99.90;;;;;;5054233;28;20232;-61
2021/08/23 05:16:45;;;;;;;101.97;41.47;;;16.20;99.90;;;;;;5053902;28;20210;-61
2021/08/23 05:19:12;;;;;;;93.53;42.50;;;16.20;99.90;;;;;;5053666;28;20225;-61
2021/08/23 05:21:38;;;;;;;83.93;39.53;;;16.20;99.90;;;;;;5053724;28;20229;-61
2021/08/23 05:24:05;;;;;;;90.40;40.60;;;16.20;99.90;;;;;;5053772;28;20201;-61
2021/08/23 05:26:31;;;;;;;80.80;38.33;;;16.20;99.90;;;;;;5053567;28;20255;-61
2021/08/23 05:28:58;;;;;;;78.50;37.10;;;16.20;99.90;;;;;;5053474;28;20213;-61
2021/08/23 05:31:25;;;;;;;83.03;38.93;;;16.30;99.90;;;;;;5053231;28;20654;-61
2021/08/23 05:33:53;;;;;;;75.23;38.10;;;16.20;99.90;;;;;;5053095;28;20267;-61
2021/08/23 05:36:20;;;;;;;77.60;37.17;;;16.30;99.90;;;;;;5053455;28;20636;-61
2021/08/23 05:38:46;;;;;;;67.43;34.90;;;16.40;99.90;;;;;;5053370;28;20205;-61
2021/08/23 05:41:13;;;;;;;66.37;35.00;;;16.50;99.90;;;;;;5053036;28;20737;-61
2021/08/23 05:43:39;;;;;;;70.73;35.23;;;16.40;99.90;;;;;;5052877;28;20202;-61
2021/08/23 05:46:06;;;;;;;70.13;35.50;;;16.40;99.90;;;;;;5052250;28;20562;-61
2021/08/23 05:48:33;;;;;;;66.90;35.60;;;16.40;99.90;;;;;;5053184;28;20201;-60
2021/08/23 05:51:02;;;;;;;59.90;32.67;;;16.40;99.90;;;;;;5053103;28;20347;-60
2021/08/23 05:53:29;;;;;;;69.50;35.33;;;16.50;99.90;;;;;;5052804;28;20216;-63
2021/08/23 05:55:55;;;;;;;66.83;34.13;;;16.50;99.90;;;;;;5050366;28;20205;-61
2021/08/23 05:58:22;;;;;;;72.00;35.73;;;16.50;99.90;;;;;;5052605;28;20206;-62
2021/08/23 06:00:48;;;;;;;73.80;36.80;;;16.50;99.90;;;;;;5051918;28;20295;-62
2021/08/23 06:03:15;;;;;;;68.67;38.30;;;16.50;99.90;;;;;;5052881;28;20225;-61
2021/08/23 06:05:42;;;;;;;74.77;44.20;;;16.50;99.90;;;;;;5052609;28;20624;-62
2021/08/23 06:08:10;;;;;;;62.37;34.03;;;16.50;99.90;;;;;;5053530;28;20241;-62
2021/08/23 06:10:37;;;;;;;54.80;31.97;;;16.40;99.90;;;;;;5053480;28;20210;-62
2021/08/23 06:13:03;;;;;;;57.73;31.27;;;16.50;99.90;;;;;;5052204;28;20229;-61
2021/08/23 06:15:30;;;;;;;59.10;32.17;;;16.40;99.90;;;;;;5053083;28;20213;-62
2021/08/23 06:17:57;;;;;;;56.70;31.73;;;16.40;99.90;;;;;;5053644;28;20201;-62
2021/08/23 06:20:23;;;;;;;49.77;30.57;;;16.40;99.90;;;;;;5053591;28;20233;-62
2021/08/23 06:22:51;;;;;;;46.70;27.80;;;16.40;99.90;;;;;;5051699;28;20287;-62
2021/08/23 06:25:19;;;;;;;57.47;31.70;;;16.40;99.90;;;;;;5052161;28;20205;-62
2021/08/23 06:27:46;;;;;;;59.13;31.53;;;16.40;99.90;;;;;;5052215;28;20628;-62
2021/08/23 06:30:13;;;;;;;53.93;30.80;;;16.40;99.90;;;;;;5052229;28;20213;-62
2021/08/23 06:32:40;;;;;;;47.50;27.73;;;16.30;99.90;;;;;;5052585;28;20287;-62
2021/08/23 06:35:07;;;;;;;50.90;30.17;;;16.30;99.90;;;;;;5052078;28;20576;-64
2021/08/23 06:37:35;;;;;;;44.67;27.43;;;16.40;99.90;;;;;;5047962;28;20263;-63
2021/08/23 06:40:07;;;;;;;37.87;24.63;;;16.50;99.90;;;;;;5051578;28;20240;-64
2021/08/23 06:42:36;;;;;;;43.17;27.47;;;16.50;99.90;;;;;;5051582;28;20229;-64
2021/08/23 06:45:03;;;;;;;40.70;25.40;;;16.50;99.90;;;;;;5051823;28;20296;-64
2021/08/23 06:47:30;;;;;;;38.47;25.77;;;16.50;99.90;;;;;;5051567;28;20206;-64
2021/08/23 06:49:56;;;;;;;42.27;27.90;;;16.50;99.90;;;;;;5051710;28;20228;-64
2021/08/23 06:52:23;;;;;;;45.47;27.53;;;16.50;99.90;;;;;;5051396;28;20259;-64
2021/08/23 06:54:50;;;;;;;44.90;27.47;;;16.40;99.90;;;;;;5051502;28;20263;-63
2021/08/23 06:57:16;;;;;;;40.00;26.27;;;16.40;99.90;;;;;;5051297;28;20259;-65
2021/08/23 06:59:44;;;;;;;40.83;25.67;;;16.50;99.90;;;;;;5051627;28;20218;-65
2021/08/23 07:02:11;;;;;;;41.73;25.40;;;16.40;99.90;;;;;;5051493;28;20271;-65
2021/08/23 07:04:37;;;;;;;44.33;26.10;;;16.30;99.90;;;;;;5051472;28;20209;-63
2021/08/23 07:07:04;;;;;;;42.70;24.23;;;16.30;99.90;;;;;;5051165;28;20737;-63
2021/08/23 07:09:31;;;;;;;35.93;22.07;;;16.20;99.90;;;;;;5051161;28;20255;-64
2021/08/23 07:11:57;;;;;;;32.53;20.27;;;16.20;99.90;;;;;;5051431;28;20229;-63
2021/08/23 07:14:24;;;;;;;36.20;20.67;;;16.20;99.90;;;;;;5051338;28;20206;-62
2021/08/23 07:16:52;;;;;;;34.57;22.13;;;16.10;99.90;;;;;;5051032;28;20706;-62
2021/08/23 07:19:19;;;;;;;36.87;22.50;;;16.10;99.90;;;;;;5051443;28;20251;-63
2021/08/23 07:21:46;;;;;;;35.60;21.73;;;16.10;99.90;;;;;;5051150;28;20716;-63
2021/08/23 07:24:12;;;;;;;33.20;21.77;;;16.20;99.90;;;;;;5051093;28;20205;-65
2021/08/23 07:26:39;;;;;;;32.57;20.67;;;16.20;99.90;;;;;;5051014;28;20213;-63
2021/08/23 07:29:06;;;;;;;29.27;19.67;;;16.20;99.90;;;;;;5051417;28;20210;-63
2021/08/23 07:31:32;;;;;;;32.20;22.07;;;16.30;99.90;;;;;;5050262;28;20367;-63
2021/08/23 07:34:00;;;;;;;33.67;22.23;;;16.30;99.90;;;;;;5051097;28;20263;-63
2021/08/23 07:36:27;;;;;;;33.33;22.80;;;16.20;99.90;;;;;;5050862;28;20910;-63
2021/08/23 07:38:54;;;;;;;33.00;23.93;;;16.30;99.90;;;;;;5051147;28;20275;-63
2021/08/23 07:41:20;;;;;;;32.50;21.90;;;16.30;99.90;;;;;;5051228;28;20232;-63
2021/08/23 07:43:47;;;;;;;35.10;24.40;;;16.30;99.90;;;;;;5050985;28;20206;-62
2021/08/23 07:46:14;;;;;;;35.03;23.57;;;16.20;99.90;;;;;;5051083;28;20210;-62
2021/08/23 07:48:42;;;;;;;30.67;21.70;;;16.30;99.90;;;;;;5050946;28;20221;-62
2021/08/23 07:51:10;;;;;;;32.90;23.60;;;16.20;99.90;;;;;;5050773;28;20209;-62
2021/08/23 07:53:37;;;;;;;32.73;23.70;;;16.20;99.90;;;;;;5051020;28;20209;-63
2021/08/23 07:56:04;;;;;;;31.17;23.87;;;16.10;99.90;;;;;;5051122;28;20209;-62
2021/08/23 07:58:31;;;;;;;32.97;23.40;;;16.10;99.90;;;;;;5050983;28;20210;-63
2021/08/23 08:00:57;;;;;;;31.40;21.03;;;16.10;99.90;;;;;;5050813;28;20291;-63
2021/08/23 08:03:24;;;;;;;30.87;23.00;;;16.10;99.90;;;;;;5050978;28;20209;-62
2021/08/23 08:05:51;;;;;;;32.87;21.87;;;16.20;99.90;;;;;;5050709;28;20213;-62
2021/08/23 08:08:20;;;;;;;28.03;20.07;;;16.30;99.90;;;;;;5050969;28;20275;-64
2021/08/23 08:10:46;;;;;;;29.87;21.17;;;16.30;99.90;;;;;;5054080;28;20296;-63
2021/08/23 08:13:14;;;;;;;31.47;23.07;;;16.40;99.90;;;;;;5054694;28;20233;-63
2021/08/23 08:15:40;;;;;;;28.37;22.00;;;16.30;99.90;;;;;;5054400;28;20282;-64
2021/08/23 08:18:07;;;;;;;30.70;23.23;;;16.50;99.90;;;;;;5054232;28;20315;-63
2021/08/23 08:20:34;;;;;;;23.87;20.67;;;16.70;99.90;;;;;;5054902;28;20644;-63
2021/08/23 08:23:01;;;;;;;27.20;19.87;;;16.70;92.30;;;;;;5054471;28;20229;-63
2021/08/23 08:25:30;;;;;;;21.53;18.07;;;16.70;3.00;;;;;;5054663;28;20690;-65
2021/08/23 08:27:56;;;;;;;22.23;19.07;;;16.60;1.00;;;;;;5054119;28;20213;-64
2021/08/23 08:30:23;;;;;;;26.83;19.90;;;16.60;1.00;;;;;;5054386;28;20268;-63
2021/08/23 08:32:50;;;;;;;22.67;17.47;;;16.60;1.00;;;;;;5053967;28;20783;-64
2021/08/23 08:35:16;;;;;;;25.97;20.17;;;16.70;1.00;;;;;;5054145;28;20212;-63
2021/08/23 08:37:43;;;;;;;26.87;19.00;;;16.80;1.00;;;;;;5054197;28;20236;-63
2021/08/23 08:40:12;;;;;;;21.00;17.57;;;16.90;99.90;;;;;;5054235;28;20217;-64
2021/08/23 08:42:40;;;;;;;21.23;17.10;;;17.00;99.90;;;;;;5054194;28;20225;-62
2021/08/23 08:45:08;;;;;;;18.97;14.60;;;17.00;91.60;;;;;;5054031;28;20410;-62
2021/08/23 08:47:35;;;;;;;21.87;17.63;;;16.90;99.90;;;;;;5054093;28;20210;-62
2021/08/23 08:50:03;;;;;;;21.00;16.17;;;16.80;99.90;;;;;;5054155;28;20292;-62
2021/08/23 08:52:31;;;;;;;23.83;17.57;;;16.70;99.90;;;;;;5054116;28;20271;-62
2021/08/23 08:54:58;;;;;;;25.30;19.53;;;16.60;1.00;;;;;;5053789;28;20740;-63
2021/08/23 08:57:25;;;;;;;23.33;17.50;;;16.40;99.90;;;;;;5053627;28;20206;-62
2021/08/23 08:59:53;;;;;;;27.60;20.17;;;16.40;60.60;;;;;;5053695;28;20205;-62
2021/08/23 09:02:19;;;;;;;26.90;20.73;;;16.40;99.90;;;;;;5053885;28;20642;-65
2021/08/23 09:04:46;;;;;;;27.77;21.40;;;16.50;99.90;;;;;;5053809;28;20205;-62
2021/08/23 09:07:13;;;;;;;32.13;21.57;;;16.50;99.90;;;;;;5053452;28;20210;-64
2021/08/23 09:09:40;;;;;;;27.20;20.77;;;16.60;99.90;;;;;;5053835;28;20221;-64
2021/08/23 09:12:09;;;;;;;26.13;20.83;;;16.70;99.90;;;;;;5053326;28;20225;-65
2021/08/23 09:14:40;;;;;;;27.57;20.93;;;16.80;99.90;;;;;;5053031;28;20236;-64
2021/08/23 09:17:10;;;;;;;28.37;21.03;;;16.90;76.40;;;;;;5053861;28;20205;-64
2021/08/23 09:19:40;;;;;;;25.47;20.47;;;17.00;99.90;;;;;;5053907;28;20216;-64
2021/08/23 09:22:08;;;;;;;20.93;17.83;;;17.20;1.00;;;;;;5052342;28;20236;-64
2021/08/23 09:24:36;;;;;;;22.80;17.33;;;17.40;99.90;;;;;;5053407;28;20205;-64
2021/08/23 09:27:05;;;;;;;27.10;19.47;;;17.40;99.90;;;;;;5053263;28;20228;-64
2021/08/23 09:29:31;;;;;;;23.37;18.67;;;17.30;1.00;;;;;;5053599;28;20274;-64
2021/08/23 09:32:01;;;;;;;22.40;16.93;;;17.40;1.00;;;;;;5053787;28;20367;-64
2021/08/23 09:34:29;;;;;;;23.57;18.47;;;17.40;1.00;;;;;;5052934;28;20266;-63
2021/08/23 09:36:57;;;;;;;23.53;17.70;;;17.40;99.90;;;;;;5052616;28;20201;-64
2021/08/23 09:39:27;;;;;;;29.60;20.00;;;17.50;1.00;;;;;;5053101;28;20212;-64
2021/08/23 09:42:04;;;;;;;23.83;18.33;;;17.50;1.00;;;;;;5053306;28;20367;-64
2021/08/23 09:44:35;;;;;;;23.50;18.03;;;17.60;33.60;;;;;;5053018;28;20205;-64
2021/08/23 09:47:02;;;;;;;21.93;17.07;;;17.60;79.10;;;;;;5053162;28;20697;-63
2021/08/23 09:49:36;;;;;;;25.60;18.73;;;17.60;1.00;;;;;;5053129;28;20206;-64
2021/08/23 09:52:03;;;;;;;25.73;18.10;;;17.70;99.90;;;;;;5052824;28;20225;-64
2021/08/23 09:54:31;;;;;;;27.47;19.70;;;17.80;1.00;;;;;;5052716;28;20228;-63
2021/08/23 09:56:58;;;;;;;21.13;17.10;;;17.70;99.90;;;;;;5052720;28;20263;-64
2021/08/23 09:59:26;;;;;;;25.43;18.27;;;17.70;99.90;;;;;;5053089;28;20213;-63
2021/08/23 10:01:54;;;;;;;22.47;17.17;;;17.70;99.90;;;;;;5053197;28;20702;-63
2021/08/23 10:04:21;;;;;;;23.47;17.47;;;17.70;1.00;;;;;;5052716;28;20690;-64
2021/08/23 10:06:51;;;;;;;24.17;18.57;;;17.80;1.00;;;;;;5052919;28;20217;-64
2021/08/23 10:09:19;;;;;;;22.10;17.10;;;17.90;29.10;;;;;;5053584;28;20736;-64
2021/08/23 10:11:46;;;;;;;24.90;18.33;;;17.90;99.90;;;;;;5053611;28;20226;-64
2021/08/23 10:14:13;;;;;;;23.23;18.37;;;18.00;99.90;;;;;;5052976;28;20228;-64
2021/08/23 10:16:40;;;;;;;20.60;16.67;;;18.10;99.90;;;;;;5052553;28;20210;-64
2021/08/23 10:19:09;;;;;;;22.70;16.73;;;18.20;1.00;;;;;;5052508;28;20201;-64
2021/08/23 10:21:37;;;;;;;22.03;15.53;;;18.20;1.00;;;;;;5052414;28;20233;-64
2021/08/23 10:24:07;;;;;;;21.30;16.73;;;18.20;99.90;;;;;;5052316;28;20209;-63
2021/08/23 10:26:42;;;;;;;23.90;17.43;;;18.20;99.90;;;;;;5052672;28;20301;-64
2021/08/23 10:29:11;;;;;;;22.80;17.83;;;18.10;99.90;;;;;;5052760;28;20282;-65
2021/08/23 10:31:41;;;;;;;22.13;18.60;;;18.10;1.00;;;;;;5051966;28;20291;-64
2021/08/23 10:34:13;;;;;;;24.93;18.00;;;18.20;1.00;;;;;;5052262;28;20221;-66
2021/08/23 10:36:40;;;;;;;23.17;18.27;;;18.30;99.90;;;;;;5052283;28;20206;-63
2021/08/23 10:39:08;;;;;;;23.70;17.10;;;18.50;99.90;;;;;;5052260;28;20205;-63
2021/08/23 10:41:36;;;;;;;22.30;17.67;;;18.60;99.90;;;;;;5052189;28;20758;-63
2021/08/23 10:44:05;;;;;;;23.67;17.77;;;18.50;1.00;;;;;;5051882;28;20213;-63
2021/08/23 10:46:33;;;;;;;23.93;17.53;;;18.30;44.90;;;;;;5052534;28;20267;-64
2021/08/23 10:49:03;;;;;;;20.80;17.77;;;18.30;99.90;;;;;;5052347;28;20259;-64
2021/08/23 10:51:32;;;;;;;22.57;18.37;;;18.40;99.90;;;;;;5052169;28;20649;-63
2021/08/23 10:53:59;;;;;;;21.77;16.83;;;18.50;1.00;;;;;;5051798;28;20213;-64
2021/08/23 10:56:37;;;;;;;24.77;17.90;;;18.60;99.90;;;;;;5051949;28;20206;-64
2021/08/23 10:59:15;;;;;;;23.87;17.10;;;18.70;63.50;;;;;;5052226;28;20244;-63
2021/08/23 11:01:53;;;;;;;20.00;16.40;;;18.80;1.00;;;;;;5051800;28;20737;-64
2021/08/23 11:04:31;;;;;;;18.93;16.47;;;19.00;1.00;;;;;;5051585;28;20211;-64
2021/08/23 11:06:58;;;;;;;20.67;16.13;;;19.10;99.90;;;;;;5051909;28;20209;-64
2021/08/23 11:09:32;;;;;;;21.10;17.30;;;19.20;1.00;;;;;;5051866;28;20666;-63
2021/08/23 11:12:09;;;;;;;20.17;17.20;;;19.30;1.00;;;;;;5052152;28;20266;-64
2021/08/23 11:14:46;;;;;;;18.60;16.47;;;19.30;41.20;;;;;;5051555;28;20209;-64
2021/08/23 11:17:14;;;;;;;21.53;17.93;;;19.10;22.90;;;;;;5051968;28;20251;-64
2021/08/23 11:19:41;;;;;;;19.23;16.97;;;18.90;99.90;;;;;;5051722;28;20214;-63
2021/08/23 11:22:08;;;;;;;19.87;16.90;;;18.80;99.90;;;;;;5051722;28;20713;-65
2021/08/23 11:24:36;;;;;;;19.53;16.87;;;18.80;99.90;;;;;;5051394;28;20202;-64
2021/08/23 11:27:05;;;;;;;21.30;16.60;;;18.80;1.00;;;;;;5052203;28;20205;-65
2021/08/23 11:29:38;;;;;;;19.23;16.30;;;18.80;1.00;;;;;;5051694;28;20697;-65
2021/08/23 11:32:09;;;;;;;19.40;16.03;;;18.80;1.00;;;;;;5051467;28;20249;-63
2021/08/23 11:34:36;;;;;;;17.83;13.90;;;19.10;99.90;;;;;;5051522;28;20205;-63
2021/08/23 11:37:05;;;;;;;17.40;14.57;;;19.10;1.00;;;;;;5051747;28;20202;-64
2021/08/23 11:39:32;;;;;;;19.43;15.33;;;19.00;1.00;;;;;;5051734;28;20209;-63
2021/08/23 11:42:00;;;;;;;18.83;15.97;;;19.10;99.90;;;;;;5051551;28;20229;-63
2021/08/23 11:44:27;;;;;;;15.70;13.77;;;19.20;99.90;;;;;;5052457;28;20201;-63
2021/08/23 11:46:57;;;;;;;17.87;14.23;;;19.30;99.90;;;;;;5055723;28;20263;-63
2021/08/23 11:49:30;;;;;;;14.80;10.97;;;19.50;99.90;;;;;;5051500;28;20214;-63
2021/08/23 11:51:58;;;;;;;14.17;11.90;;;19.60;99.90;;;;;;5055110;28;20260;-64
2021/08/23 11:54:25;;;;;;;15.57;12.90;;;19.40;99.90;;;;;;5055350;28;20256;-64
2021/08/23 11:56:51;;;;;;;16.77;13.47;;;19.30;99.90;;;;;;5054969;28;20209;-65
2021/08/23 11:59:18;;;;;;;17.83;13.67;;;19.30;99.90;;;;;;5054994;28;20205;-64
2021/08/23 12:01:47;;;;;;;19.43;14.53;;;19.20;99.90;;;;;;5054798;28;20703;-63
2021/08/23 12:04:22;;;;;;;20.70;15.30;;;19.10;1.00;;;;;;5054385;28;20219;-63
2021/08/23 12:06:58;;;;;;;21.27;16.63;;;19.00;1.00;;;;;;5055194;28;20213;-65
2021/08/23 12:09:25;;;;;;;18.60;14.70;;;18.90;99.90;;;;;;5054464;28;20201;-65
2021/08/23 12:11:51;;;;;;;19.47;14.87;;;19.00;1.00;;;;;;5054916;28;20222;-65
2021/08/23 12:14:19;;;;;;;18.80;16.30;;;19.10;1.00;;;;;;5054832;28;20213;-66
2021/08/23 12:16:47;;;;;;;19.40;15.70;;;19.20;1.00;;;;;;5054789;28;20227;-66
2021/08/23 12:19:16;;;;;;;19.67;15.73;;;19.20;1.00;;;;;;5054238;28;20279;-64
2021/08/23 12:21:45;;;;;;;20.50;16.30;;;19.10;1.00;;;;;;5053688;28;20233;-65
2021/08/23 12:24:20;;;;;;;21.70;16.13;;;19.10;1.00;;;;;;5054106;28;20650;-63
2021/08/23 12:26:51;;;;;;;18.03;14.97;;;19.20;1.00;;;;;;5054568;28;20216;-63
2021/08/23 12:29:19;;;;;;;19.53;14.50;;;19.40;1.00;;;;;;5054153;28;20208;-63
2021/08/23 12:31:51;;;;;;;15.97;13.23;;;19.40;99.90;;;;;;5054261;28;20291;-63